createdAt,value
2023-03-29T00:01:34.965Z,0.65
2023-03-29T00:04:38.952Z,0.74
2023-03-29T00:07:42.524Z,0.69
2023-03-29T00:10:48.633Z,0.68
2023-03-29T00:13:51.090Z,0.65
2023-03-29T00:16:53.625Z,0.58
2023-03-29T00:19:56.085Z,0.46
2023-03-29T00:22:58.758Z,0.37
2023-03-29T00:26:01.139Z,0.22
2023-03-29T00:29:03.958Z,0.12
2023-03-29T00:32:06.521Z,-0.05
2023-03-29T00:35:09.329Z,-0.14
2023-03-29T00:38:11.757Z,-0.33
2023-03-29T00:41:14.927Z,-0.50
2023-03-29T00:44:35.797Z,-0.65
2023-03-29T00:47:59.984Z,-0.51
2023-03-29T00:51:09.770Z,-0.50
2023-03-29T00:54:16.160Z,-0.51
2023-03-29T00:57:20.909Z,-0.55
2023-03-29T01:00:27.980Z,-0.58
2023-03-29T01:03:33.984Z,-0.53
2023-03-29T01:06:39.250Z,-0.54
2023-03-29T01:09:43.606Z,-0.59
2023-03-29T01:12:50.064Z,-0.59
2023-03-29T01:15:54.291Z,-0.59
2023-03-29T01:18:58.328Z,-0.61
2023-03-29T01:22:22.619Z,-0.75
2023-03-29T01:25:28.354Z,-0.73
2023-03-29T01:28:36.329Z,-0.60
2023-03-29T01:31:41.775Z,-0.63
2023-03-29T01:34:44.191Z,-0.60
2023-03-29T01:37:56.791Z,-0.57
2023-03-29T01:40:59.174Z,-0.66
2023-03-29T01:44:15.951Z,-0.75
2023-03-29T01:47:38.589Z,-0.68
2023-03-29T01:51:03.786Z,-0.74
2023-03-29T01:54:10.091Z,-0.72
2023-03-29T01:57:14.492Z,-0.63
2023-03-29T02:00:19.229Z,-0.55
2023-03-29T02:03:24.930Z,-0.65
2023-03-29T02:06:31.846Z,-0.65
2023-03-29T02:09:37.234Z,-0.69
2023-03-29T02:12:40.345Z,-0.67
2023-03-29T02:15:44.459Z,-0.58
2023-03-29T02:18:48.855Z,-0.66
2023-03-29T02:22:05.143Z,-0.65
2023-03-29T02:25:09.497Z,-0.58
2023-03-29T02:28:12.822Z,-0.64
2023-03-29T02:31:21.263Z,-0.68
2023-03-29T02:34:24.497Z,-0.70
2023-03-29T02:37:30.380Z,-0.77
2023-03-29T02:40:34.649Z,-0.79
2023-03-29T02:43:40.328Z,-0.89
2023-03-29T02:46:43.986Z,-0.79
2023-03-29T02:49:48.114Z,-0.91
2023-03-29T02:52:56.120Z,-0.96
2023-03-29T02:56:02.249Z,-1.07
2023-03-29T02:59:04.928Z,-1.06
2023-03-29T03:02:07.588Z,-1.04
2023-03-29T03:05:09.974Z,-0.99
2023-03-29T03:08:13.998Z,-0.98
2023-03-29T03:11:16.976Z,-1.13
2023-03-29T03:14:22.850Z,-1.16
2023-03-29T03:17:25.677Z,-1.18
2023-03-29T03:20:28.390Z,-1.19
2023-03-29T03:23:30.973Z,-1.42
2023-03-29T03:26:35.932Z,-1.53
2023-03-29T03:29:39.318Z,-1.51
2023-03-29T03:32:44.743Z,-1.44
2023-03-29T03:36:02.785Z,-1.55
2023-03-29T03:39:07.354Z,-1.65
2023-03-29T03:42:09.691Z,-1.61
2023-03-29T03:45:14.697Z,-1.67
2023-03-29T03:48:20.469Z,-1.77
2023-03-29T03:51:23.387Z,-1.76
2023-03-29T03:54:26.153Z,-1.73
2023-03-29T03:57:30.299Z,-1.79
2023-03-29T04:00:33.361Z,-1.63
2023-03-29T04:03:39.897Z,-1.57
2023-03-29T04:06:44.188Z,-1.52
2023-03-29T04:09:53.025Z,-1.47
2023-03-29T04:12:56.689Z,-1.62
2023-03-29T04:16:01.688Z,-1.65
2023-03-29T04:19:04.648Z,-1.44
2023-03-29T04:22:07.252Z,-1.29
2023-03-29T04:25:10.472Z,-1.31
2023-03-29T04:28:15.521Z,-1.39
2023-03-29T04:31:19.215Z,-1.48
2023-03-29T04:34:23.322Z,-1.55
2023-03-29T04:37:26.130Z,-1.59
2023-03-29T04:40:29.150Z,-1.65
2023-03-29T04:43:31.761Z,-1.59
2023-03-29T04:46:34.691Z,-1.56
2023-03-29T04:49:39.346Z,-1.51
2023-03-29T04:52:45.377Z,-1.51
2023-03-29T04:55:47.922Z,-1.42
2023-03-29T04:58:51.293Z,-1.31
2023-03-29T05:01:54.716Z,-1.16
2023-03-29T05:04:57.543Z,-0.98
2023-03-29T05:08:00.122Z,-0.76
2023-03-29T05:11:03.938Z,-0.56
2023-03-29T05:14:08.673Z,-0.41
2023-03-29T05:17:11.324Z,-0.23
2023-03-29T05:20:13.942Z,-0.05
2023-03-29T05:23:17.535Z,0.21
2023-03-29T05:26:25.491Z,0.49
2023-03-29T05:29:32.800Z,0.76
2023-03-29T05:32:37.270Z,1.07
2023-03-29T05:35:40.103Z,1.21
2023-03-29T05:38:46.764Z,1.39
2023-03-29T05:41:50.066Z,1.58
2023-03-29T05:44:54.607Z,1.76
2023-03-29T05:47:57.986Z,1.97
2023-03-29T05:51:00.574Z,2.18
2023-03-29T05:54:03.586Z,2.48
2023-03-29T05:57:06.322Z,2.68
2023-03-29T06:00:24.252Z,2.84
2023-03-29T06:03:27.863Z,2.83
2023-03-29T06:06:31.699Z,2.89
2023-03-29T06:09:34.533Z,2.95
2023-03-29T06:12:37.728Z,3.17
2023-03-29T06:15:41.417Z,3.38
2023-03-29T06:18:44.905Z,3.46
2023-03-29T06:21:47.696Z,3.78
2023-03-29T06:24:51.180Z,4.15
2023-03-29T06:27:56.929Z,4.47
2023-03-29T06:31:02.623Z,4.36
2023-03-29T06:34:07.631Z,4.51
2023-03-29T06:37:12.946Z,4.86
2023-03-29T06:40:21.207Z,4.83
2023-03-29T06:43:23.914Z,4.67
2023-03-29T06:46:27.520Z,4.72
2023-03-29T06:49:29.909Z,5.12
2023-03-29T06:52:32.850Z,5.40
2023-03-29T06:55:36.100Z,5.58
2023-03-29T06:58:42.667Z,5.60
2023-03-29T07:01:47.300Z,5.51
2023-03-29T07:04:50.252Z,5.49
2023-03-29T07:07:57.149Z,6.14
2023-03-29T07:11:01.556Z,6.35
2023-03-29T07:14:05.770Z,6.64
2023-03-29T07:17:08.589Z,6.76
2023-03-29T07:20:14.213Z,6.42
2023-03-29T07:23:18.123Z,6.34
2023-03-29T07:26:28.920Z,6.09
2023-03-29T07:29:32.969Z,6.04
2023-03-29T07:32:36.363Z,6.09
2023-03-29T07:35:43.398Z,6.36
2023-03-29T07:38:45.899Z,6.97
2023-03-29T07:41:49.413Z,7.78
2023-03-29T07:44:56.272Z,8.60
2023-03-29T07:47:59.547Z,9.27
2023-03-29T07:51:02.656Z,8.67
2023-03-29T07:54:06.715Z,8.71
2023-03-29T07:57:11.661Z,8.98
2023-03-29T08:00:19.632Z,9.09
2023-03-29T08:03:23.649Z,9.10
2023-03-29T08:06:27.490Z,9.60
2023-03-29T08:09:30.373Z,10.15
2023-03-29T08:12:32.760Z,9.39
2023-03-29T08:15:37.846Z,9.12
2023-03-29T08:18:41.385Z,8.56
2023-03-29T08:21:44.350Z,8.85
2023-03-29T08:24:47.143Z,8.67
2023-03-29T08:27:50.379Z,8.55
2023-03-29T08:30:53.778Z,8.07
2023-03-29T08:33:57.311Z,8.68
2023-03-29T08:37:02.161Z,9.11
2023-03-29T08:40:05.703Z,9.94
2023-03-29T08:43:09.800Z,12.08
2023-03-29T08:46:35.306Z,14.36
2023-03-29T08:49:42.608Z,14.13
2023-03-29T08:52:48.464Z,14.37
2023-03-29T08:55:53.445Z,12.28
2023-03-29T08:58:57.554Z,11.70
2023-03-29T09:02:02.341Z,10.55
2023-03-29T09:05:18.266Z,9.90
2023-03-29T09:08:21.914Z,9.83
2023-03-29T09:11:24.904Z,9.94
2023-03-29T09:14:33.496Z,9.49
2023-03-29T09:17:36.108Z,9.14
2023-03-29T09:20:47.856Z,9.31
2023-03-29T09:23:52.574Z,9.10
2023-03-29T09:27:19.160Z,9.29
2023-03-29T09:30:29.058Z,9.79
2023-03-29T09:33:37.324Z,9.74
2023-03-29T09:36:52.532Z,9.23
2023-03-29T09:39:56.844Z,9.42
2023-03-29T09:43:02.252Z,9.08
2023-03-29T09:46:07.066Z,9.12
2023-03-29T09:49:12.587Z,9.25
2023-03-29T09:52:16.906Z,9.63
2023-03-29T09:55:22.381Z,9.71
2023-03-29T09:58:27.565Z,9.77
2023-03-29T10:01:38.573Z,9.99
2023-03-29T10:04:42.930Z,10.21
2023-03-29T10:07:47.184Z,10.16
2023-03-29T10:10:49.965Z,10.74
2023-03-29T10:13:55.041Z,11.45
2023-03-29T10:16:57.810Z,11.31
2023-03-29T10:20:04.387Z,11.08
2023-03-29T10:23:08.342Z,10.95
2023-03-29T10:26:16.722Z,10.73
2023-03-29T10:29:19.591Z,10.72
2023-03-29T10:32:22.856Z,11.09
2023-03-29T10:35:29.607Z,11.18
2023-03-29T10:38:32.180Z,10.99
2023-03-29T10:41:35.587Z,11.40
2023-03-29T10:44:38.668Z,11.21
2023-03-29T10:47:44.748Z,10.81
2023-03-29T10:50:53.020Z,10.36
2023-03-29T10:53:59.269Z,10.46
2023-03-29T10:57:05.226Z,10.43
2023-03-29T11:00:20.400Z,10.50
2023-03-29T11:03:32.312Z,10.70
2023-03-29T11:06:41.078Z,10.92
2023-03-29T11:10:07.196Z,11.12
2023-03-29T11:13:18.617Z,11.30
2023-03-29T11:16:32.921Z,11.37
2023-03-29T11:19:44.470Z,11.44
2023-03-29T11:22:53.384Z,11.34
2023-03-29T11:25:59.127Z,11.03
2023-03-29T11:29:16.110Z,11.12
2023-03-29T11:32:28.530Z,11.47
2023-03-29T11:35:49.058Z,11.40
2023-03-29T11:39:04.280Z,11.32
2023-03-29T11:42:09.485Z,11.02
2023-03-29T11:45:28.621Z,11.08
2023-03-29T11:48:38.506Z,11.26
2023-03-29T11:51:44.077Z,11.77
2023-03-29T11:54:49.250Z,11.96
2023-03-29T11:58:04.883Z,12.07
2023-03-29T12:01:10.261Z,12.40
2023-03-29T12:04:22.484Z,11.57
2023-03-29T12:07:32.229Z,11.39
2023-03-29T12:10:37.859Z,11.32
2023-03-29T12:13:44.522Z,11.70
2023-03-29T12:16:49.570Z,12.08
2023-03-29T12:20:02.415Z,11.79
2023-03-29T12:23:10.922Z,11.68
2023-03-29T12:26:17.177Z,11.31
2023-03-29T12:29:32.221Z,11.44
2023-03-29T12:32:37.814Z,11.45
2023-03-29T12:36:00.416Z,11.47
2023-03-29T12:39:16.009Z,11.86
2023-03-29T12:42:21.710Z,11.90
2023-03-29T12:45:34.982Z,12.03
2023-03-29T12:48:38.685Z,12.03
2023-03-29T12:51:41.864Z,11.42
2023-03-29T12:54:52.383Z,11.22
2023-03-29T12:58:02.495Z,11.39
2023-03-29T13:01:06.111Z,11.19
2023-03-29T13:04:22.448Z,11.10
2023-03-29T13:07:27.926Z,11.07
2023-03-29T13:10:35.518Z,11.42
2023-03-29T13:13:39.514Z,10.98
2023-03-29T13:16:42.855Z,10.92
2023-03-29T13:19:45.825Z,10.79
2023-03-29T13:22:48.129Z,10.89
2023-03-29T13:25:50.839Z,10.92
2023-03-29T13:28:53.141Z,11.16
2023-03-29T13:31:59.556Z,11.45
2023-03-29T13:35:11.628Z,11.81
2023-03-29T13:38:33.260Z,11.57
2023-03-29T13:41:38.615Z,11.32
2023-03-29T13:44:46.099Z,11.20
2023-03-29T13:47:58.782Z,11.33
2023-03-29T13:51:20.625Z,11.63
2023-03-29T13:54:23.182Z,12.30
2023-03-29T13:57:32.663Z,12.63
2023-03-29T14:00:40.070Z,12.62
2023-03-29T14:03:46.925Z,12.73
2023-03-29T14:06:51.768Z,13.11
2023-03-29T14:09:55.627Z,13.18
2023-03-29T14:13:02.677Z,13.17
2023-03-29T14:16:09.074Z,12.73
2023-03-29T14:19:19.203Z,12.48
2023-03-29T14:22:21.992Z,12.35
2023-03-29T14:25:24.388Z,12.02
2023-03-29T14:28:28.528Z,11.73
2023-03-29T14:31:35.819Z,11.26
2023-03-29T14:34:39.506Z,11.28
2023-03-29T14:37:42.244Z,11.32
2023-03-29T14:40:45.217Z,11.40
2023-03-29T14:43:47.640Z,11.34
2023-03-29T14:46:50.439Z,11.40
2023-03-29T14:49:54.477Z,11.38
2023-03-29T14:52:58.484Z,11.41
2023-03-29T14:56:02.213Z,11.38
2023-03-29T14:59:05.102Z,11.25
2023-03-29T15:02:22.476Z,11.23
2023-03-29T15:05:34.035Z,11.20
2023-03-29T15:08:38.107Z,11.13
2023-03-29T15:11:40.809Z,11.20
2023-03-29T15:14:43.209Z,11.36
2023-03-29T15:17:51.216Z,11.28
2023-03-29T15:20:55.084Z,11.05
2023-03-29T15:23:58.770Z,11.06
2023-03-29T15:27:03.511Z,11.15
2023-03-29T15:30:14.857Z,11.17
2023-03-29T15:33:21.350Z,11.06
2023-03-29T15:36:24.132Z,10.89
2023-03-29T15:39:27.843Z,10.82
2023-03-29T15:42:31.485Z,10.68
2023-03-29T15:45:33.815Z,10.42
2023-03-29T15:48:36.677Z,10.44
2023-03-29T15:51:39.267Z,10.51
2023-03-29T15:54:42.472Z,10.25
2023-03-29T15:57:46.643Z,10.26
2023-03-29T16:00:53.882Z,10.21
2023-03-29T16:03:57.849Z,10.02
2023-03-29T16:07:01.227Z,9.81
2023-03-29T16:10:06.021Z,9.81
2023-03-29T16:13:10.565Z,9.72
2023-03-29T16:16:13.274Z,9.69
2023-03-29T16:19:15.877Z,9.59
2023-03-29T16:22:18.530Z,9.54
2023-03-29T16:25:22.835Z,9.51
2023-03-29T16:28:25.466Z,9.54
2023-03-29T16:31:31.027Z,9.64
2023-03-29T16:34:33.825Z,9.58
2023-03-29T16:37:36.124Z,9.50
2023-03-29T16:40:38.959Z,9.53
2023-03-29T16:43:41.357Z,9.39
2023-03-29T16:46:44.614Z,9.25
2023-03-29T16:49:48.652Z,9.09
2023-03-29T16:52:54.090Z,9.02
2023-03-29T16:55:57.426Z,8.88
2023-03-29T16:59:00.127Z,8.84
2023-03-29T17:02:02.710Z,8.79
2023-03-29T17:05:06.109Z,8.65
2023-03-29T17:08:10.216Z,8.59
2023-03-29T17:11:13.121Z,8.59
2023-03-29T17:14:15.705Z,8.51
2023-03-29T17:17:18.680Z,8.46
2023-03-29T17:20:21.088Z,8.45
2023-03-29T17:23:24.378Z,8.35
2023-03-29T17:26:26.771Z,8.31
2023-03-29T17:29:29.766Z,8.32
2023-03-29T17:32:32.394Z,8.39
2023-03-29T17:35:35.085Z,8.37
2023-03-29T17:38:38.063Z,8.37
2023-03-29T17:41:40.950Z,8.36
2023-03-29T17:44:43.557Z,8.32
2023-03-29T17:47:46.362Z,8.35
2023-03-29T17:50:48.707Z,8.30
2023-03-29T17:53:52.476Z,8.27
2023-03-29T17:56:54.808Z,8.30
2023-03-29T17:59:57.442Z,8.37
2023-03-29T18:03:00.794Z,8.33
2023-03-29T18:06:04.279Z,8.27
2023-03-29T18:09:07.103Z,8.20
2023-03-29T18:12:09.849Z,8.13
2023-03-29T18:15:12.192Z,8.09
2023-03-29T18:18:14.892Z,8.10
2023-03-29T18:21:17.952Z,8.07
2023-03-29T18:24:20.647Z,8.03
2023-03-29T18:27:23.088Z,8.08
2023-03-29T18:30:25.670Z,8.05
2023-03-29T18:33:30.247Z,7.96
2023-03-29T18:36:32.882Z,8.02
2023-03-29T18:39:35.753Z,7.98
2023-03-29T18:42:38.477Z,7.96
2023-03-29T18:45:40.847Z,7.87
2023-03-29T18:48:43.510Z,7.92
2023-03-29T18:51:47.621Z,7.82
2023-03-29T18:54:50.491Z,7.76
2023-03-29T18:57:52.859Z,7.76
2023-03-29T19:00:59.775Z,7.72
2023-03-29T19:04:02.178Z,7.81
2023-03-29T19:07:04.799Z,7.69
2023-03-29T19:10:08.386Z,7.69
2023-03-29T19:13:11.120Z,7.70
2023-03-29T19:16:13.634Z,7.73
2023-03-29T19:19:16.481Z,7.68
2023-03-29T19:22:19.098Z,7.63
2023-03-29T19:25:21.793Z,7.68
2023-03-29T19:28:24.418Z,7.65
2023-03-29T19:31:27.529Z,7.65
2023-03-29T19:34:30.521Z,7.67
2023-03-29T19:37:33.190Z,7.67
2023-03-29T19:40:36.520Z,7.63
2023-03-29T19:43:39.109Z,7.64
2023-03-29T19:46:41.938Z,7.56
2023-03-29T19:49:46.530Z,7.55
2023-03-29T19:52:49.100Z,7.56
2023-03-29T19:55:52.466Z,7.58
2023-03-29T19:58:54.988Z,7.58
2023-03-29T20:01:57.647Z,7.53
2023-03-29T20:05:01.641Z,7.57
2023-03-29T20:08:04.283Z,7.52
2023-03-29T20:11:10.365Z,7.47
2023-03-29T20:14:13.238Z,7.45
2023-03-29T20:17:15.970Z,7.47
2023-03-29T20:20:18.537Z,7.54
2023-03-29T20:23:21.255Z,7.65
2023-03-29T20:26:24.254Z,7.50
2023-03-29T20:29:28.285Z,7.54
2023-03-29T20:32:31.737Z,7.46
2023-03-29T20:35:34.701Z,7.39
2023-03-29T20:38:37.144Z,7.41
2023-03-29T20:41:40.267Z,7.38
2023-03-29T20:44:50.591Z,7.35
2023-03-29T20:47:57.913Z,7.33
2023-03-29T20:51:03.008Z,7.35
2023-03-29T20:54:06.083Z,7.37
2023-03-29T20:57:10.095Z,7.35
2023-03-29T21:00:12.960Z,7.38
2023-03-29T21:03:15.379Z,7.36
2023-03-29T21:06:19.290Z,7.32
2023-03-29T21:09:22.273Z,7.35
2023-03-29T21:12:25.564Z,7.32
2023-03-29T21:15:34.413Z,7.33
2023-03-29T21:18:38.728Z,7.37
2023-03-29T21:21:41.530Z,7.37
2023-03-29T21:24:44.371Z,7.37
2023-03-29T21:27:46.847Z,7.37
2023-03-29T21:30:49.948Z,7.43
2023-03-29T21:33:54.744Z,7.46
2023-03-29T21:36:57.259Z,7.49
2023-03-29T21:39:59.624Z,7.51
2023-03-29T21:43:02.206Z,7.52
2023-03-29T21:46:04.905Z,7.49
2023-03-29T21:49:07.813Z,7.48
2023-03-29T21:52:10.894Z,7.43
2023-03-29T21:55:13.601Z,7.40
2023-03-29T21:58:16.311Z,7.37
2023-03-29T22:01:19.000Z,7.32
2023-03-29T22:04:33.582Z,7.29
2023-03-29T22:07:41.503Z,7.29
2023-03-29T22:10:44.135Z,7.33
2023-03-29T22:13:46.692Z,7.30
2023-03-29T22:16:49.480Z,7.31
2023-03-29T22:19:52.339Z,7.32
2023-03-29T22:22:55.680Z,7.25
2023-03-29T22:25:57.992Z,7.23
2023-03-29T22:29:00.854Z,7.21
2023-03-29T22:32:03.565Z,7.21
2023-03-29T22:35:06.508Z,7.14
2023-03-29T22:38:08.850Z,7.11
2023-03-29T22:41:12.229Z,7.09
2023-03-29T22:44:14.519Z,7.04
2023-03-29T22:47:17.619Z,7.02
2023-03-29T22:50:19.932Z,7.02
2023-03-29T22:53:22.525Z,7.01
2023-03-29T22:56:24.913Z,6.98
2023-03-29T22:59:27.665Z,6.95
2023-03-29T23:02:30.001Z,6.93
2023-03-29T23:05:32.935Z,6.88
2023-03-29T23:08:35.363Z,6.90
2023-03-29T23:11:37.962Z,6.81
2023-03-29T23:14:42.762Z,6.74
2023-03-29T23:17:45.457Z,6.71
2023-03-29T23:20:48.521Z,6.67
2023-03-29T23:23:51.183Z,6.62
2023-03-29T23:26:55.260Z,6.60
2023-03-29T23:29:59.570Z,6.56
2023-03-29T23:33:02.540Z,6.59
2023-03-29T23:36:08.952Z,6.67
2023-03-29T23:39:11.533Z,6.61
2023-03-29T23:42:14.229Z,6.56
2023-03-29T23:45:20.735Z,6.57
2023-03-29T23:48:24.011Z,6.66
2023-03-29T23:51:28.420Z,6.59
2023-03-29T23:54:34.436Z,6.57
2023-03-29T23:57:37.190Z,6.53
